createdAt,value
2022-10-25T00:00:03.499Z,3.20
2022-10-25T00:01:03.559Z,3.30
2022-10-25T00:02:03.595Z,3.40
2022-10-25T00:03:03.484Z,3.60
2022-10-25T00:04:03.477Z,3.30
2022-10-25T00:05:03.465Z,3.30
2022-10-25T00:06:03.466Z,3.50
2022-10-25T00:07:03.461Z,3.70
2022-10-25T00:08:03.460Z,3.30
2022-10-25T00:09:03.450Z,3.40
2022-10-25T00:10:03.443Z,3.80
2022-10-25T00:11:03.437Z,3.50
2022-10-25T00:12:03.426Z,3.40
2022-10-25T00:13:03.422Z,3.20
2022-10-25T00:14:03.416Z,3.50
2022-10-25T00:15:03.418Z,3.10
2022-10-25T00:16:03.405Z,3.30
2022-10-25T00:17:03.406Z,3.40
2022-10-25T00:18:03.394Z,3.30
2022-10-25T00:19:03.388Z,3.20
2022-10-25T00:20:03.377Z,3.20
2022-10-25T00:22:03.371Z,3.80
2022-10-25T00:23:03.371Z,3.60
2022-10-25T00:24:03.359Z,3.60
2022-10-25T00:25:03.368Z,3.40
2022-10-25T00:26:03.347Z,3.60
2022-10-25T00:27:03.344Z,3.50
2022-10-25T00:28:03.331Z,3.50
2022-10-25T00:29:03.329Z,3.90
2022-10-25T00:30:03.324Z,3.60
2022-10-25T00:31:03.324Z,3.70
2022-10-25T00:32:03.318Z,3.50
2022-10-25T00:33:03.310Z,3.80
2022-10-25T00:34:03.300Z,3.80
2022-10-25T00:35:03.297Z,3.60
2022-10-25T00:36:03.284Z,3.70
2022-10-25T00:37:03.283Z,3.80
2022-10-25T00:38:03.274Z,3.70
2022-10-25T00:39:03.288Z,3.70
2022-10-25T00:40:03.265Z,3.90
2022-10-25T00:41:03.270Z,3.80
2022-10-25T00:42:03.257Z,3.90
2022-10-25T00:43:03.252Z,3.80
2022-10-25T00:44:03.237Z,3.80
2022-10-25T00:45:03.234Z,3.90
2022-10-25T00:46:03.228Z,3.70
2022-10-25T00:47:03.230Z,3.80
2022-10-25T00:48:03.217Z,3.80
2022-10-25T00:49:03.205Z,3.70
2022-10-25T00:50:03.209Z,4.00
2022-10-25T00:51:03.204Z,3.80
2022-10-25T00:52:03.190Z,3.80
2022-10-25T00:53:03.185Z,3.70
2022-10-25T00:54:03.178Z,3.80
2022-10-25T00:55:03.186Z,3.80
2022-10-25T00:56:03.172Z,3.80
2022-10-25T00:57:03.165Z,4.10
2022-10-25T00:58:03.162Z,3.80
2022-10-25T00:59:03.163Z,4.00
2022-10-25T01:00:03.141Z,4.00
2022-10-25T01:01:03.193Z,3.90
2022-10-25T01:02:03.198Z,4.20
2022-10-25T01:03:03.129Z,3.90
2022-10-25T01:04:03.124Z,4.00
2022-10-25T01:05:03.116Z,3.90
2022-10-25T01:06:03.106Z,4.20
2022-10-25T01:07:03.118Z,3.80
2022-10-25T01:08:03.094Z,4.00
2022-10-25T01:09:03.093Z,3.70
2022-10-25T01:10:03.085Z,3.60
2022-10-25T01:11:03.093Z,3.60
2022-10-25T01:12:03.074Z,3.70
2022-10-25T01:13:03.069Z,3.80
2022-10-25T01:14:03.061Z,3.90
2022-10-25T01:15:03.051Z,3.60
2022-10-25T01:16:03.046Z,3.60
2022-10-25T01:17:03.045Z,3.50
2022-10-25T01:18:03.044Z,3.20
2022-10-25T01:19:03.033Z,3.50
2022-10-25T01:20:03.027Z,3.50
2022-10-25T01:21:03.020Z,3.30
2022-10-25T01:22:03.014Z,3.60
2022-10-25T01:23:03.011Z,3.70
2022-10-25T01:24:03.000Z,3.50
2022-10-25T01:25:02.996Z,3.60
2022-10-25T01:26:02.994Z,3.40
2022-10-25T01:27:02.990Z,3.40
2022-10-25T01:28:02.982Z,3.40
2022-10-25T01:29:02.974Z,3.40
2022-10-25T01:30:02.967Z,3.70
2022-10-25T01:31:02.964Z,3.60
2022-10-25T01:32:02.955Z,3.20
2022-10-25T01:33:02.949Z,3.40
2022-10-25T01:34:02.958Z,3.30
2022-10-25T01:35:02.937Z,3.40
2022-10-25T01:36:02.952Z,3.30
2022-10-25T01:37:02.928Z,3.30
2022-10-25T01:38:02.920Z,3.30
2022-10-25T01:39:02.911Z,3.50
2022-10-25T01:40:02.906Z,3.10
2022-10-25T01:41:02.904Z,3.70
2022-10-25T01:42:02.901Z,3.10
2022-10-25T01:43:02.892Z,3.30
2022-10-25T01:44:02.888Z,3.20
2022-10-25T01:45:02.880Z,3.20
2022-10-25T01:46:02.874Z,3.10
2022-10-25T01:47:02.868Z,3.30
2022-10-25T01:48:02.861Z,3.30
2022-10-25T01:49:02.858Z,3.30
2022-10-25T01:50:02.855Z,3.40
2022-10-25T01:51:02.848Z,3.50
2022-10-25T01:52:02.841Z,3.50
2022-10-25T01:53:02.833Z,3.30
2022-10-25T01:54:02.828Z,3.30
2022-10-25T01:55:02.820Z,3.20
2022-10-25T01:56:02.814Z,3.40
2022-10-25T01:57:02.809Z,3.40
2022-10-25T01:58:02.806Z,3.50
2022-10-25T01:59:02.799Z,3.20
2022-10-25T02:00:02.795Z,3.50
2022-10-25T02:01:02.934Z,3.20
2022-10-25T02:02:02.785Z,3.40
2022-10-25T02:03:02.772Z,3.30
2022-10-25T02:04:02.770Z,3.50
2022-10-25T02:05:02.764Z,3.60
2022-10-25T02:06:02.764Z,3.50
2022-10-25T02:07:02.769Z,3.50
2022-10-25T02:08:02.815Z,3.50
2022-10-25T02:09:02.738Z,3.60
2022-10-25T02:10:02.797Z,3.50
2022-10-25T02:11:02.730Z,3.80
2022-10-25T02:12:02.722Z,3.40
2022-10-25T02:13:02.840Z,3.40
2022-10-25T02:14:02.718Z,3.60
2022-10-25T02:15:02.707Z,3.30
2022-10-25T02:16:02.705Z,3.40
2022-10-25T02:17:02.693Z,3.50
2022-10-25T02:18:02.700Z,3.30
2022-10-25T02:19:02.678Z,3.30
2022-10-25T02:20:02.675Z,3.20
2022-10-25T02:21:02.672Z,3.20
2022-10-25T02:22:02.671Z,3.30
2022-10-25T02:23:02.662Z,3.10
2022-10-25T02:24:02.655Z,3.60
2022-10-25T02:25:02.648Z,3.50
2022-10-25T02:26:02.644Z,3.50
2022-10-25T02:27:02.638Z,3.60
2022-10-25T02:28:02.675Z,3.60
2022-10-25T02:29:02.627Z,3.50
2022-10-25T02:30:02.621Z,3.30
2022-10-25T02:31:02.633Z,3.30
2022-10-25T02:32:02.615Z,3.40
2022-10-25T02:33:02.616Z,3.50
2022-10-25T02:34:02.598Z,3.20
2022-10-25T02:35:02.687Z,3.40
2022-10-25T02:36:02.584Z,3.60
2022-10-25T02:37:02.581Z,3.60
2022-10-25T02:38:02.579Z,3.30
2022-10-25T02:39:02.570Z,3.40
2022-10-25T02:40:02.566Z,3.10
2022-10-25T02:41:02.558Z,3.20
2022-10-25T02:42:02.704Z,3.10
2022-10-25T02:43:02.549Z,3.30
2022-10-25T02:44:02.541Z,3.40
2022-10-25T02:45:02.536Z,3.00
2022-10-25T02:46:02.535Z,3.30
2022-10-25T02:47:02.526Z,3.30
2022-10-25T02:48:02.519Z,2.90
2022-10-25T02:49:02.517Z,3.00
2022-10-25T02:50:02.511Z,3.40
2022-10-25T02:51:02.500Z,3.00
2022-10-25T02:52:02.496Z,3.00
2022-10-25T02:53:02.493Z,2.80
2022-10-25T02:54:02.483Z,2.90
2022-10-25T02:55:02.482Z,2.80
2022-10-25T02:56:02.473Z,2.70
2022-10-25T02:57:02.466Z,2.80
2022-10-25T02:58:02.464Z,2.70
2022-10-25T02:59:02.456Z,2.90
2022-10-25T03:00:02.506Z,2.80
2022-10-25T03:01:02.529Z,3.00
2022-10-25T03:02:02.509Z,2.90
2022-10-25T03:03:02.434Z,2.80
2022-10-25T03:04:02.428Z,2.80
2022-10-25T03:05:02.423Z,2.90
2022-10-25T03:06:02.416Z,2.90
2022-10-25T03:07:02.419Z,2.80
2022-10-25T03:08:02.403Z,2.60
2022-10-25T03:09:02.402Z,2.60
2022-10-25T03:10:02.405Z,2.70
2022-10-25T03:11:02.390Z,2.60
2022-10-25T03:12:02.382Z,2.50
2022-10-25T03:13:02.384Z,2.70
2022-10-25T03:14:02.373Z,2.70
2022-10-25T03:15:02.371Z,2.50
2022-10-25T03:16:02.359Z,2.30
2022-10-25T03:17:02.357Z,2.50
2022-10-25T03:18:02.351Z,2.50
2022-10-25T03:19:02.354Z,2.50
2022-10-25T03:20:02.342Z,2.60
2022-10-25T03:21:02.341Z,2.70
2022-10-25T03:22:02.330Z,2.40
2022-10-25T03:23:02.326Z,2.50
2022-10-25T03:24:02.313Z,2.40
2022-10-25T03:25:02.354Z,2.40
2022-10-25T03:26:02.305Z,2.40
2022-10-25T03:27:02.307Z,2.30
2022-10-25T03:28:02.295Z,2.50
2022-10-25T03:29:02.292Z,2.20
2022-10-25T03:30:02.284Z,2.30
2022-10-25T03:31:02.280Z,2.20
2022-10-25T03:32:02.267Z,2.20
2022-10-25T03:33:02.266Z,2.30
2022-10-25T03:34:02.264Z,2.50
2022-10-25T03:35:02.261Z,2.20
2022-10-25T03:36:02.253Z,2.40
2022-10-25T03:37:02.247Z,2.10
2022-10-25T03:38:02.239Z,2.20
2022-10-25T03:39:02.258Z,2.30
2022-10-25T03:40:02.232Z,2.20
2022-10-25T03:41:02.225Z,2.10
2022-10-25T03:42:02.218Z,2.10
2022-10-25T03:43:02.217Z,2.00
2022-10-25T03:44:02.202Z,2.00
2022-10-25T03:45:02.206Z,2.00
2022-10-25T03:46:02.194Z,2.00
2022-10-25T03:47:02.190Z,2.00
2022-10-25T03:48:02.183Z,1.90
2022-10-25T03:49:02.184Z,2.20
2022-10-25T03:50:02.176Z,1.80
2022-10-25T03:51:02.178Z,1.90
2022-10-25T03:52:04.206Z,1.70
2022-10-25T03:53:02.223Z,1.70
2022-10-25T03:54:02.150Z,1.70
2022-10-25T03:55:02.140Z,1.70
2022-10-25T03:56:02.139Z,1.70
2022-10-25T03:57:02.130Z,1.70
2022-10-25T03:58:02.129Z,1.70
2022-10-25T03:59:02.124Z,1.70
2022-10-25T04:00:02.121Z,1.70
2022-10-25T04:01:02.170Z,1.70
2022-10-25T04:02:02.198Z,1.60
2022-10-25T04:03:02.486Z,1.60
2022-10-25T04:04:02.103Z,1.60
2022-10-25T04:05:02.086Z,1.70
2022-10-25T04:06:02.083Z,1.20
2022-10-25T04:07:02.076Z,1.50
2022-10-25T04:08:02.137Z,1.60
2022-10-25T04:09:02.069Z,1.60
2022-10-25T04:10:02.061Z,1.40
2022-10-25T04:11:02.056Z,1.40
2022-10-25T04:12:02.052Z,1.50
2022-10-25T04:13:02.044Z,1.40
2022-10-25T04:14:02.041Z,1.50
2022-10-25T04:15:02.035Z,1.30
2022-10-25T04:16:02.026Z,1.40
2022-10-25T04:17:02.023Z,1.30
2022-10-25T04:18:02.027Z,1.50
2022-10-25T04:19:02.012Z,1.30
2022-10-25T04:20:02.010Z,1.30
2022-10-25T04:21:01.994Z,1.40
2022-10-25T04:22:01.995Z,1.30
2022-10-25T04:23:01.984Z,1.30
2022-10-25T04:24:04.297Z,1.30
2022-10-25T04:25:01.985Z,1.30
2022-10-25T04:26:01.980Z,1.30
2022-10-25T04:27:01.966Z,1.30
2022-10-25T04:28:01.961Z,1.30
2022-10-25T04:29:01.950Z,1.20
2022-10-25T04:30:01.953Z,1.30
2022-10-25T04:31:01.948Z,1.20
2022-10-25T04:32:01.952Z,1.10
2022-10-25T04:33:01.939Z,1.00
2022-10-25T04:34:01.947Z,1.20
2022-10-25T04:35:01.926Z,1.20
2022-10-25T04:36:01.915Z,1.10
2022-10-25T04:37:01.903Z,1.20
2022-10-25T04:38:01.905Z,1.10
2022-10-25T04:39:01.911Z,1.10
2022-10-25T04:40:01.898Z,1.00
2022-10-25T04:41:01.893Z,1.10
2022-10-25T04:42:01.939Z,1.30
2022-10-25T04:43:01.877Z,1.20
2022-10-25T04:44:01.868Z,1.20
2022-10-25T04:45:01.865Z,1.10
2022-10-25T04:46:01.860Z,1.10
2022-10-25T04:47:01.855Z,1.20
2022-10-25T04:48:01.851Z,1.00
2022-10-25T04:49:01.846Z,1.10
2022-10-25T04:50:01.860Z,1.00
2022-10-25T04:51:01.831Z,1.00
2022-10-25T04:52:01.823Z,1.10
2022-10-25T04:53:01.814Z,1.10
2022-10-25T04:54:01.819Z,1.10
2022-10-25T04:55:01.815Z,1.10
2022-10-25T04:56:01.804Z,1.00
2022-10-25T04:57:01.899Z,1.00
2022-10-25T04:58:01.790Z,1.00
2022-10-25T04:59:01.787Z,1.00
2022-10-25T05:00:01.782Z,0.80
2022-10-25T05:01:01.884Z,1.10
2022-10-25T05:02:01.817Z,1.10
2022-10-25T05:03:01.866Z,1.00
2022-10-25T05:04:01.758Z,1.20
2022-10-25T05:05:01.763Z,1.00
2022-10-25T05:06:01.746Z,1.00
2022-10-25T05:07:01.740Z,1.00
2022-10-25T05:08:01.736Z,0.90
2022-10-25T05:09:01.723Z,1.10
2022-10-25T05:10:01.721Z,1.10
2022-10-25T05:11:01.724Z,1.00
2022-10-25T05:12:01.711Z,1.20
2022-10-25T05:13:01.711Z,1.10
2022-10-25T05:14:01.703Z,1.20
2022-10-25T05:15:01.694Z,1.00
2022-10-25T05:16:01.684Z,1.00
2022-10-25T05:17:01.684Z,1.00
2022-10-25T05:18:01.675Z,1.00
2022-10-25T05:19:01.676Z,1.10
2022-10-25T05:20:01.669Z,1.10
2022-10-25T05:21:01.662Z,1.00
2022-10-25T05:22:01.785Z,1.00
2022-10-25T05:23:01.650Z,1.00
2022-10-25T05:24:02.346Z,1.00
2022-10-25T05:25:01.635Z,0.90
2022-10-25T05:26:01.628Z,1.10
2022-10-25T05:27:01.672Z,0.80
2022-10-25T05:28:01.619Z,1.00
2022-10-25T05:29:02.343Z,1.00
2022-10-25T05:30:01.602Z,1.10
2022-10-25T05:31:01.655Z,0.90
2022-10-25T05:32:01.601Z,1.10
2022-10-25T05:33:04.171Z,1.10
2022-10-25T05:34:01.582Z,1.10
2022-10-25T05:35:01.579Z,1.00
2022-10-25T05:36:01.585Z,1.00
2022-10-25T05:37:01.569Z,1.00
2022-10-25T05:38:01.562Z,1.00
2022-10-25T05:39:01.559Z,1.00
2022-10-25T05:40:01.545Z,0.90
2022-10-25T05:41:01.541Z,1.10
2022-10-25T05:42:01.535Z,1.00
2022-10-25T05:43:01.534Z,1.10
2022-10-25T05:44:01.535Z,1.00
2022-10-25T05:45:01.530Z,1.10
2022-10-25T05:46:01.514Z,1.10
2022-10-25T05:47:01.509Z,1.10
2022-10-25T05:48:01.505Z,1.10
2022-10-25T05:49:01.496Z,0.90
2022-10-25T05:50:01.492Z,1.00
2022-10-25T05:51:14.253Z,1.00
2022-10-25T05:52:01.482Z,1.00
2022-10-25T05:53:01.476Z,1.10
2022-10-25T05:54:01.468Z,0.80
2022-10-25T05:55:01.464Z,1.10
2022-10-25T05:56:01.456Z,1.20
2022-10-25T05:57:01.450Z,1.00
2022-10-25T05:58:01.445Z,1.00
2022-10-25T05:59:01.439Z,1.10
2022-10-25T06:00:01.469Z,1.10
2022-10-25T06:01:01.572Z,1.10
2022-10-25T06:02:01.493Z,1.10
2022-10-25T06:03:01.416Z,1.10
2022-10-25T06:04:01.420Z,1.10
2022-10-25T06:05:01.398Z,1.10
2022-10-25T06:06:01.398Z,1.10
2022-10-25T06:07:01.394Z,1.10
2022-10-25T06:08:01.396Z,1.20
2022-10-25T06:09:01.381Z,1.10
2022-10-25T06:10:01.387Z,1.10
2022-10-25T06:11:01.369Z,1.10
2022-10-25T06:12:02.973Z,1.10
2022-10-25T06:13:01.355Z,0.90
2022-10-25T06:14:01.373Z,1.10
2022-10-25T06:15:01.347Z,1.30
2022-10-25T06:16:01.347Z,1.00
2022-10-25T06:17:01.340Z,1.10
2022-10-25T06:18:01.346Z,1.10
2022-10-25T06:19:01.328Z,1.30
2022-10-25T06:20:01.318Z,1.00
2022-10-25T06:21:01.306Z,1.10
2022-10-25T06:22:01.307Z,1.10
2022-10-25T06:23:01.299Z,1.00
2022-10-25T06:24:01.299Z,1.20
2022-10-25T06:25:01.292Z,1.10
2022-10-25T06:26:01.283Z,1.10
2022-10-25T06:27:01.278Z,1.10
2022-10-25T06:28:01.269Z,1.20
2022-10-25T06:29:01.268Z,1.00
2022-10-25T06:30:01.269Z,1.00
2022-10-25T06:31:01.259Z,1.10
2022-10-25T06:32:01.251Z,1.10
2022-10-25T06:33:01.242Z,1.20
2022-10-25T06:34:01.243Z,0.90
2022-10-25T06:35:01.232Z,1.10
2022-10-25T06:36:01.227Z,1.10
2022-10-25T06:37:01.214Z,1.10
2022-10-25T06:38:01.214Z,1.10
2022-10-25T06:39:05.444Z,1.20
2022-10-25T06:40:01.211Z,0.90
2022-10-25T06:41:01.196Z,1.10
2022-10-25T06:42:01.192Z,1.10
2022-10-25T06:43:01.185Z,1.10
2022-10-25T06:44:06.199Z,1.10
2022-10-25T06:45:01.176Z,1.00
2022-10-25T06:46:01.168Z,1.10
2022-10-25T06:47:17.988Z,1.20
2022-10-25T06:48:01.157Z,1.10
2022-10-25T06:49:01.160Z,1.10
2022-10-25T06:50:01.194Z,1.10
2022-10-25T06:51:01.141Z,1.20
2022-10-25T06:52:01.133Z,1.10
2022-10-25T06:53:01.131Z,1.00
2022-10-25T06:54:01.124Z,1.10
2022-10-25T06:55:01.121Z,0.90
2022-10-25T06:56:04.571Z,1.10
2022-10-25T06:57:01.104Z,1.20
2022-10-25T06:58:01.102Z,1.10
2022-10-25T06:59:01.096Z,1.10
2022-10-25T07:01:01.250Z,1.40
2022-10-25T07:02:01.167Z,1.20
2022-10-25T07:03:01.073Z,1.20
2022-10-25T07:04:01.070Z,1.20
2022-10-25T07:05:01.063Z,1.20
2022-10-25T07:06:01.056Z,1.30
2022-10-25T07:07:01.052Z,1.30
2022-10-25T07:08:01.045Z,1.30
2022-10-25T07:09:01.047Z,1.20
2022-10-25T07:10:01.031Z,1.40
2022-10-25T07:11:01.029Z,1.20
2022-10-25T07:12:01.025Z,1.30
2022-10-25T07:13:01.016Z,1.10
2022-10-25T07:14:01.011Z,1.30
2022-10-25T07:15:01.027Z,1.30
2022-10-25T07:16:01.006Z,1.50
2022-10-25T07:17:00.999Z,1.30
2022-10-25T07:18:00.985Z,1.20
2022-10-25T07:19:00.991Z,1.20
2022-10-25T07:20:01.011Z,1.20
2022-10-25T07:21:00.981Z,1.20
2022-10-25T07:22:00.969Z,1.20
2022-10-25T07:23:01.791Z,1.10
2022-10-25T07:24:00.954Z,1.20
2022-10-25T07:25:00.994Z,1.10
2022-10-25T07:26:00.944Z,1.20
2022-10-25T07:27:00.961Z,1.30
2022-10-25T07:28:00.934Z,1.20
2022-10-25T07:29:00.943Z,1.20
2022-10-25T07:30:00.927Z,1.10
2022-10-25T07:31:00.937Z,1.10
2022-10-25T07:32:00.915Z,1.10
2022-10-25T07:33:00.907Z,1.20
2022-10-25T07:34:00.905Z,1.20
2022-10-25T07:35:00.921Z,1.20
2022-10-25T07:36:10.973Z,1.40
2022-10-25T07:37:00.888Z,1.40
2022-10-25T07:38:00.884Z,1.40
2022-10-25T07:39:00.961Z,1.40
2022-10-25T07:40:00.889Z,1.40
2022-10-25T07:41:00.865Z,1.10
2022-10-25T07:42:00.863Z,1.60
2022-10-25T07:43:00.852Z,1.50
2022-10-25T07:44:00.855Z,1.60
2022-10-25T07:45:00.857Z,1.60
2022-10-25T07:46:00.855Z,1.40
2022-10-25T07:47:00.868Z,1.40
2022-10-25T07:48:00.831Z,1.80
2022-10-25T07:49:00.824Z,1.60
2022-10-25T07:50:00.831Z,1.60
2022-10-25T07:51:00.809Z,1.70
2022-10-25T07:52:00.806Z,1.50
2022-10-25T07:53:00.803Z,1.60
2022-10-25T07:54:00.844Z,1.70
2022-10-25T07:55:00.799Z,1.80
2022-10-25T07:56:00.789Z,1.90
2022-10-25T07:57:00.779Z,1.90
2022-10-25T07:58:00.774Z,1.90
2022-10-25T07:59:00.772Z,1.80
2022-10-25T08:00:00.764Z,1.80
2022-10-25T08:01:00.757Z,2.10
2022-10-25T08:02:00.765Z,1.90
2022-10-25T08:03:00.776Z,1.90
2022-10-25T08:04:00.743Z,1.80
2022-10-25T08:05:00.738Z,2.00
2022-10-25T08:06:00.735Z,1.90
2022-10-25T08:07:00.732Z,2.00
2022-10-25T08:08:00.726Z,2.20
2022-10-25T08:09:09.617Z,2.10
2022-10-25T08:10:00.719Z,2.10
2022-10-25T08:11:00.706Z,2.10
2022-10-25T08:12:00.700Z,1.90
2022-10-25T08:13:00.695Z,1.90
2022-10-25T08:14:00.747Z,2.10
2022-10-25T08:15:00.690Z,2.10
2022-10-25T08:16:00.678Z,2.10
2022-10-25T08:17:00.686Z,2.00
2022-10-25T08:18:00.671Z,2.10
2022-10-25T08:19:00.676Z,2.10
2022-10-25T08:20:00.660Z,2.10
2022-10-25T08:21:02.743Z,1.90
2022-10-25T08:22:00.652Z,2.00
2022-10-25T08:23:00.661Z,2.00
2022-10-25T08:24:00.634Z,2.10
2022-10-25T08:25:00.636Z,2.00
2022-10-25T08:26:00.655Z,2.10
2022-10-25T08:27:00.628Z,2.00
2022-10-25T08:28:00.617Z,2.00
2022-10-25T08:29:00.612Z,1.90
2022-10-25T08:30:00.609Z,1.60
2022-10-25T08:31:00.945Z,1.80
2022-10-25T08:32:00.605Z,1.70
2022-10-25T08:33:00.590Z,1.60
2022-10-25T08:34:00.655Z,1.70
2022-10-25T08:35:00.584Z,1.80
2022-10-25T08:36:00.585Z,1.90
2022-10-25T08:37:00.578Z,1.80
2022-10-25T08:38:00.582Z,1.90
2022-10-25T08:39:00.562Z,1.70
2022-10-25T08:40:00.558Z,1.60
2022-10-25T08:41:00.546Z,1.70
2022-10-25T08:42:00.546Z,1.60
2022-10-25T08:43:00.548Z,1.60
2022-10-25T08:45:00.533Z,1.70
2022-10-25T08:46:00.521Z,1.60
2022-10-25T08:47:00.525Z,1.90
2022-10-25T08:48:00.515Z,1.80
2022-10-25T08:49:00.517Z,1.80
2022-10-25T08:50:00.501Z,1.60
2022-10-25T08:51:00.503Z,1.50
2022-10-25T08:52:00.502Z,1.60
2022-10-25T08:53:00.492Z,1.60
2022-10-25T08:54:00.493Z,1.60
2022-10-25T08:55:03.349Z,1.70
2022-10-25T08:56:17.288Z,1.60
2022-10-25T08:57:15.521Z,1.60
2022-10-25T08:58:00.461Z,1.60
2022-10-25T08:59:00.461Z,1.50
2022-10-25T09:00:00.458Z,1.70
2022-10-25T09:01:00.474Z,1.60
2022-10-25T09:02:00.623Z,1.60
2022-10-25T09:03:00.451Z,1.60
2022-10-25T09:04:00.438Z,1.80
2022-10-25T09:05:00.433Z,1.50
2022-10-25T09:06:00.435Z,1.60
2022-10-25T09:07:00.421Z,1.50
2022-10-25T09:08:00.419Z,1.40
2022-10-25T09:09:00.416Z,1.50
2022-10-25T09:10:00.415Z,1.50
2022-10-25T09:11:00.403Z,1.50
2022-10-25T09:12:00.400Z,1.40
2022-10-25T09:13:00.397Z,1.60
2022-10-25T09:14:00.389Z,1.70
2022-10-25T09:15:00.395Z,1.70
2022-10-25T09:16:00.379Z,1.80
2022-10-25T09:17:00.378Z,1.70
2022-10-25T09:18:00.371Z,1.70
2022-10-25T09:19:00.374Z,1.50
2022-10-25T09:20:00.369Z,1.60
2022-10-25T09:21:00.674Z,1.70
2022-10-25T09:22:00.354Z,1.60
2022-10-25T09:23:00.351Z,1.60
2022-10-25T09:24:00.350Z,1.70
2022-10-25T09:25:00.336Z,1.70
2022-10-25T09:26:00.337Z,1.50
2022-10-25T09:27:00.331Z,1.80
2022-10-25T09:28:00.327Z,1.70
2022-10-25T09:29:00.322Z,1.60
2022-10-25T09:30:03.826Z,1.60
2022-10-25T09:31:00.315Z,1.70
2022-10-25T09:32:00.309Z,1.50
2022-10-25T09:33:00.299Z,1.60
2022-10-25T09:34:03.940Z,1.60
2022-10-25T09:35:00.304Z,1.50
2022-10-25T09:36:00.297Z,1.80
2022-10-25T09:37:00.286Z,1.70
2022-10-25T09:38:00.293Z,1.70
2022-10-25T09:39:00.280Z,1.70
2022-10-25T09:40:00.273Z,1.70
2022-10-25T09:41:00.274Z,1.50
2022-10-25T09:42:00.260Z,1.70
2022-10-25T09:43:00.300Z,1.60
2022-10-25T09:44:00.257Z,1.80
2022-10-25T09:45:00.258Z,1.60
2022-10-25T09:46:00.255Z,1.70
2022-10-25T09:47:00.246Z,1.60
2022-10-25T09:48:00.252Z,1.70
2022-10-25T09:49:00.234Z,1.70
2022-10-25T09:50:00.235Z,1.70
2022-10-25T09:51:00.221Z,1.80
2022-10-25T09:52:00.220Z,1.70
2022-10-25T09:54:00.227Z,1.80
2022-10-25T09:55:00.218Z,1.80
2022-10-25T09:56:00.201Z,1.60
2022-10-25T09:57:00.218Z,1.90
2022-10-25T09:58:00.196Z,1.80
2022-10-25T09:59:00.192Z,1.80
2022-10-25T10:00:00.183Z,1.70
2022-10-25T10:01:00.181Z,2.00
2022-10-25T10:02:00.347Z,1.70
2022-10-25T10:03:00.264Z,1.80
2022-10-25T10:04:00.223Z,1.50
2022-10-25T10:05:00.164Z,1.90
2022-10-25T10:06:00.172Z,1.50
2022-10-25T10:07:00.157Z,1.90
2022-10-25T10:08:00.161Z,1.90
2022-10-25T10:09:00.146Z,1.90
2022-10-25T10:10:00.169Z,1.80
2022-10-25T10:11:00.140Z,1.80
2022-10-25T10:12:00.149Z,1.60
2022-10-25T10:13:00.266Z,1.80
2022-10-25T10:14:00.131Z,1.70
2022-10-25T10:15:00.149Z,1.90
2022-10-25T10:16:00.121Z,1.70
2022-10-25T10:17:00.123Z,1.80
2022-10-25T10:18:00.110Z,1.90
2022-10-25T10:19:00.118Z,1.60
2022-10-25T10:20:00.111Z,1.70
2022-10-25T10:21:00.102Z,1.70
2022-10-25T10:22:00.102Z,1.80
2022-10-25T10:23:02.707Z,2.00
2022-10-25T10:24:00.137Z,1.80
2022-10-25T10:25:00.081Z,1.60
2022-10-25T10:26:00.085Z,1.70
2022-10-25T10:27:00.081Z,1.60
2022-10-25T10:28:00.063Z,1.80
2022-10-25T10:29:00.061Z,1.80
2022-10-25T10:30:00.075Z,1.70
2022-10-25T10:31:00.057Z,1.80
2022-10-25T10:32:00.051Z,1.90
2022-10-25T10:33:00.066Z,1.90
2022-10-25T10:34:00.043Z,2.00
2022-10-25T10:35:00.037Z,1.90
2022-10-25T10:36:00.033Z,1.50
2022-10-25T10:37:00.025Z,1.80
2022-10-25T10:38:00.028Z,1.50
2022-10-25T10:39:00.021Z,1.80
2022-10-25T10:40:00.018Z,1.70
2022-10-25T10:41:00.011Z,1.60
2022-10-25T10:42:00.013Z,1.60
2022-10-25T10:43:00.002Z,1.80
2022-10-25T10:43:59.996Z,1.80
2022-10-25T10:44:59.985Z,2.20
2022-10-25T10:45:59.985Z,1.90
2022-10-25T10:46:59.984Z,1.80
2022-10-25T10:47:59.982Z,1.70
2022-10-25T10:49:00.001Z,1.70
2022-10-25T10:49:59.969Z,2.00
2022-10-25T10:50:59.972Z,2.00
2022-10-25T10:51:59.960Z,2.00
2022-10-25T10:53:00.354Z,2.00
2022-10-25T10:53:59.951Z,2.00
2022-10-25T10:54:59.947Z,2.00
2022-10-25T10:55:59.945Z,2.10
2022-10-25T10:56:59.941Z,1.90
2022-10-25T10:57:59.933Z,2.10
2022-10-25T10:58:59.929Z,1.90
2022-10-25T10:59:59.937Z,1.90
2022-10-25T11:01:00.018Z,1.80
2022-10-25T11:02:00.028Z,1.90
2022-10-25T11:02:59.906Z,2.00
2022-10-25T11:04:00.910Z,1.80
2022-10-25T11:04:59.902Z,1.90
2022-10-25T11:05:59.909Z,2.00
2022-10-25T11:06:59.897Z,1.80
2022-10-25T11:07:59.889Z,1.80
2022-10-25T11:08:59.882Z,1.90
2022-10-25T11:09:59.880Z,1.80
2022-10-25T11:10:59.877Z,1.80
2022-10-25T11:11:59.866Z,1.80
2022-10-25T11:12:59.865Z,1.70
2022-10-25T11:13:59.865Z,1.90
2022-10-25T11:14:59.859Z,1.60
2022-10-25T11:15:59.869Z,1.60
2022-10-25T11:16:59.849Z,1.80
2022-10-25T11:17:59.845Z,1.70
2022-10-25T11:18:59.839Z,1.70
2022-10-25T11:19:59.840Z,1.80
2022-10-25T11:20:59.824Z,1.70
2022-10-25T11:21:59.826Z,1.60
2022-10-25T11:23:02.752Z,1.60
2022-10-25T11:23:59.823Z,1.70
2022-10-25T11:24:59.814Z,1.80
2022-10-25T11:25:59.811Z,1.70
2022-10-25T11:26:59.817Z,1.80
2022-10-25T11:27:59.886Z,1.60
2022-10-25T11:28:59.800Z,1.70
2022-10-25T11:29:59.792Z,1.60
2022-10-25T11:30:59.786Z,1.60
2022-10-25T11:31:59.783Z,1.50
2022-10-25T11:32:59.781Z,1.50
2022-10-25T11:33:59.791Z,1.70
2022-10-25T11:34:59.772Z,1.70
2022-10-25T11:35:59.780Z,1.70
2022-10-25T11:36:59.765Z,1.70
2022-10-25T11:37:59.760Z,1.50
2022-10-25T11:38:59.843Z,1.50
2022-10-25T11:39:59.752Z,1.50
2022-10-25T11:40:59.749Z,1.60
2022-10-25T11:41:59.742Z,1.40
2022-10-25T11:42:59.751Z,1.50
2022-10-25T11:43:59.736Z,1.50
2022-10-25T11:44:59.737Z,1.70
2022-10-25T11:45:59.732Z,1.60
2022-10-25T11:46:59.730Z,1.40
2022-10-25T11:47:59.745Z,1.50
2022-10-25T11:48:59.714Z,1.60
2022-10-25T11:49:59.711Z,1.50
2022-10-25T11:50:59.709Z,1.60
2022-10-25T11:51:59.708Z,1.70
2022-10-25T11:52:59.707Z,1.70
2022-10-25T11:53:59.701Z,1.50
2022-10-25T11:54:59.780Z,1.60
2022-10-25T11:55:59.687Z,1.60
2022-10-25T11:56:59.698Z,1.70
2022-10-25T11:58:03.042Z,1.50
2022-10-25T11:58:59.678Z,1.50
2022-10-25T11:59:59.679Z,1.50
2022-10-25T12:00:59.690Z,1.70
2022-10-25T12:01:59.663Z,1.60
2022-10-25T12:02:59.700Z,1.50
2022-10-25T12:03:59.678Z,1.50
2022-10-25T12:04:59.650Z,1.60
2022-10-25T12:05:59.712Z,1.50
2022-10-25T12:06:59.646Z,1.60
2022-10-25T12:07:59.641Z,1.50
2022-10-25T12:08:59.643Z,1.60
2022-10-25T12:09:59.630Z,1.40
2022-10-25T12:10:59.713Z,1.60
2022-10-25T12:11:59.624Z,1.80
2022-10-25T12:12:59.628Z,1.60
2022-10-25T12:13:59.617Z,1.60
2022-10-25T12:14:59.613Z,1.70
2022-10-25T12:15:59.621Z,1.70
2022-10-25T12:16:59.623Z,1.50
2022-10-25T12:17:59.609Z,1.70
2022-10-25T12:18:59.600Z,1.50
2022-10-25T12:19:59.610Z,1.60
2022-10-25T12:20:59.620Z,1.70
2022-10-25T12:22:01.755Z,1.60
2022-10-25T12:22:59.580Z,1.60
2022-10-25T12:23:59.578Z,1.80
2022-10-25T12:24:59.578Z,1.60
2022-10-25T12:25:59.564Z,1.60
2022-10-25T12:26:59.648Z,1.60
2022-10-25T12:27:59.556Z,1.50
2022-10-25T12:28:59.564Z,1.50
2022-10-25T12:29:59.553Z,1.70
2022-10-25T12:30:59.545Z,1.60
2022-10-25T12:31:59.542Z,1.60
2022-10-25T12:32:59.541Z,1.50
2022-10-25T12:33:59.540Z,1.50
2022-10-25T12:34:59.532Z,1.60
2022-10-25T12:35:59.527Z,1.50
2022-10-25T12:36:59.522Z,1.50
2022-10-25T12:37:59.524Z,1.50
2022-10-25T12:38:59.529Z,1.60
2022-10-25T12:39:59.510Z,1.40
2022-10-25T12:40:59.503Z,1.50
2022-10-25T12:41:59.502Z,1.60
2022-10-25T12:42:59.583Z,1.50
2022-10-25T12:43:59.487Z,1.50
2022-10-25T12:44:59.487Z,1.60
2022-10-25T12:45:59.488Z,1.60
2022-10-25T12:46:59.481Z,1.40
2022-10-25T12:47:59.471Z,1.60
2022-10-25T12:48:59.472Z,1.50
2022-10-25T12:49:59.474Z,1.30
2022-10-25T12:50:59.465Z,1.50
2022-10-25T12:51:59.461Z,1.30
2022-10-25T12:52:59.452Z,1.30
2022-10-25T12:53:59.449Z,1.30
2022-10-25T12:54:59.449Z,1.20
2022-10-25T12:55:59.451Z,1.30
2022-10-25T12:56:59.463Z,1.20
2022-10-25T12:57:59.437Z,1.40
2022-10-25T12:58:59.517Z,1.40
2022-10-25T12:59:59.429Z,1.10
2022-10-25T13:00:59.425Z,1.30
2022-10-25T13:01:59.427Z,1.30
2022-10-25T13:02:59.413Z,1.20
2022-10-25T13:03:59.412Z,1.30
2022-10-25T13:04:59.408Z,1.20
2022-10-25T13:05:59.414Z,1.30
2022-10-25T13:06:59.403Z,1.20
2022-10-25T13:07:59.399Z,1.30
2022-10-25T13:08:59.394Z,1.30
2022-10-25T13:09:59.389Z,1.30
2022-10-25T13:10:59.387Z,1.40
2022-10-25T13:11:59.896Z,1.30
2022-10-25T13:12:59.476Z,1.20
2022-10-25T13:13:59.375Z,1.40
2022-10-25T13:14:59.455Z,1.40
2022-10-25T13:15:59.366Z,1.30
2022-10-25T13:16:59.375Z,1.20
2022-10-25T13:17:59.365Z,1.50
2022-10-25T13:18:59.356Z,1.30
2022-10-25T13:19:59.349Z,1.50
2022-10-25T13:20:59.342Z,1.50
2022-10-25T13:21:59.348Z,1.70